Time;durP1;ratioP1;P1;durP2;ratioP2;P2;SDS_P1;SDS_P2;PMS_P1;PMS_P2;Temp;Humidity;BMP_temperature;BMP_pressure;BME280_temperature;BME280_humidity;BME280_pressure;Samples;Min_cycle;Max_cycle;Signal;HPM_P1;HPM_P2
2023/10/14 00:01:28;;;;;;;15.80;8.87;;;;;;;-141.97;53.44;47503.69;4934034;29;20212;-85
2023/10/14 00:03:55;;;;;;;16.60;9.20;;;;;;;-141.97;53.94;47557.53;4929133;29;20193;-85
2023/10/14 00:06:22;;;;;;;19.40;8.93;;;;;;;-141.97;53.88;47690.16;4934496;29;20181;-85
2023/10/14 00:08:48;;;;;;;16.73;9.20;;;;;;;-141.97;53.65;47505.63;4934101;29;20166;-84
2023/10/14 00:11:17;;;;;;;14.80;8.70;;;;;;;-141.97;54.22;47505.63;4952127;29;20275;-84
2023/10/14 00:13:48;;;;;;;15.03;8.73;;;;;;;-141.97;54.57;47496.00;4953479;29;20613;-84
2023/10/14 00:16:35;;;;;;;18.77;8.53;;;;;;;-141.97;54.19;47607.50;4937794;29;20200;-84
2023/10/14 00:19:08;;;;;;;16.97;8.57;;;;;;;-141.97;54.10;47511.38;4933681;29;20705;-83
2023/10/14 00:21:34;;;;;;;14.57;8.37;;;;;;;-141.97;54.18;47636.31;4933898;29;20181;-84
2023/10/14 00:24:02;;;;;;;14.80;8.73;;;;;;;-141.97;55.06;47553.69;4933637;29;20268;-83
2023/10/14 00:26:29;;;;;;;21.47;8.77;;;;;;;-141.97;54.29;47451.81;4933182;29;20566;-84
2023/10/14 00:31:46;;;;;;;17.10;9.03;;;;;;;-141.97;54.55;47444.13;4914840;29;20189;-84
2023/10/14 00:34:14;;;;;;;13.47;8.40;;;;;;;-141.97;55.67;47511.38;4897590;29;20632;-84
2023/10/14 00:36:39;;;;;;;18.50;9.10;;;;;;;-141.97;55.04;47471.03;4979077;28;20273;-85
2023/10/14 00:39:15;;;;;;;15.67;8.67;;;;;;;-141.97;55.06;47557.53;4998827;28;20231;-84
2023/10/14 00:41:46;;;;;;;14.90;8.93;;;;;;;-141.97;55.43;47555.59;4983844;28;20644;-84
2023/10/14 00:44:11;;;;;;;16.10;8.60;;;;;;;-141.97;55.61;47503.69;4991281;28;20198;-83
2023/10/14 00:46:49;;;;;;;16.13;8.43;;;;;;;-141.97;55.50;47546.00;4974894;28;20172;-83
2023/10/14 00:49:23;;;;;;;17.10;8.43;;;;;;;-141.97;55.35;47559.44;4991391;28;20747;-84
2023/10/14 00:51:58;;;;;;;12.30;7.73;;;;;;;-141.97;55.52;47526.75;4987966;28;20183;-83
2023/10/14 00:54:37;;;;;;;14.17;7.90;;;;;;;-141.97;55.73;47532.53;4993997;28;20343;-83
2023/10/14 00:59:55;;;;;;;14.23;8.23;;;;;;;-141.97;55.99;47567.13;5026205;28;20202;-81
2023/10/14 01:02:31;;;;;;;16.57;8.70;;;;;;;-141.97;55.99;47534.44;5030118;28;20190;-82
2023/10/14 01:05:03;;;;;;;13.57;8.33;;;;;;;-141.97;55.58;47659.38;5015053;28;20560;-81
2023/10/14 01:07:31;;;;;;;19.27;9.87;;;;;;;-141.97;55.00;47546.00;5009621;28;20225;-81
2023/10/14 01:09:56;;;;;;;25.73;10.97;;;;;;;-141.97;54.99;47657.47;5012295;28;20187;-81
2023/10/14 01:12:44;;;;;;;22.60;11.40;;;;;;;-141.97;55.11;47530.59;5012384;28;20536;-82
2023/10/14 01:15:19;;;;;;;21.90;11.13;;;;;;;-141.97;54.91;47526.75;5011716;28;20179;-82
2023/10/14 01:17:45;;;;;;;21.13;11.13;;;;;;;-141.97;54.97;47542.16;5004129;28;20170;-82
2023/10/14 01:22:54;;;;;;;22.37;10.80;;;;;;;-141.97;55.34;47542.16;5009380;28;20186;-81
2023/10/14 01:25:24;;;;;;;21.73;10.40;;;;;;;-141.97;55.57;47515.22;5012823;28;20170;-81
2023/10/14 01:27:50;;;;;;;17.60;10.87;;;;;;;-141.97;55.82;47486.41;5016544;28;20170;-88
2023/10/14 01:30:25;;;;;;;25.63;11.13;;;;;;;-141.97;56.44;47484.47;5019381;28;20240;-89
2023/10/14 01:32:51;;;;;;;19.77;10.70;;;;;;;-141.97;56.15;47534.44;5018417;28;20185;-89
2023/10/14 01:37:47;;;;;;;20.40;10.50;;;;;;;-141.97;56.48;47488.31;5018901;28;20229;-89
2023/10/14 01:42:58;;;;;;;19.33;10.10;;;;;;;-141.97;56.91;47522.91;5029522;28;20230;-89
2023/10/14 01:45:31;;;;;;;18.03;10.63;;;;;;;-141.97;56.65;47521.00;5010449;28;20179;-80
2023/10/14 01:50:41;;;;;;;14.30;8.30;;;;;;;-141.97;56.40;47547.91;5011255;28;20263;-80
2023/10/14 01:53:11;;;;;;;18.80;8.80;;;;;;;-141.97;57.78;47580.59;5011481;28;20173;-80
2023/10/14 01:55:38;;;;;;;15.60;8.20;;;;;;;-141.97;58.38;47590.19;5011654;28;20159;-80
2023/10/14 01:58:08;;;;;;;17.73;8.27;;;;;;;-141.97;58.79;47522.91;5010743;28;20182;-80
2023/10/14 02:00:38;;;;;;;14.60;8.67;;;;;;;-141.97;59.23;47515.22;5011404;28;20167;-81
2023/10/14 02:03:06;;;;;;;18.50;9.57;;;;;;;-141.97;59.15;47557.53;5013124;28;20155;-79
2023/10/14 02:05:41;;;;;;;16.33;9.37;;;;;;;-141.97;59.26;47530.59;5022457;28;20166;-80
2023/10/14 02:08:16;;;;;;;19.53;9.17;;;;;;;-141.97;59.33;47592.13;5042590;28;20221;-80
2023/10/14 02:10:53;;;;;;;18.17;9.37;;;;;;;-141.97;59.08;47492.16;5031739;28;20158;-80
2023/10/14 02:13:22;;;;;;;15.83;8.67;;;;;;;-141.97;59.01;47484.47;5032245;28;20181;-81
2023/10/14 02:15:49;;;;;;;18.10;9.33;;;;;;;-141.97;58.93;47524.84;5012363;28;20230;-82
2023/10/14 02:18:20;;;;;;;16.97;9.87;;;;;;;-141.97;58.48;47542.16;5036732;28;20277;-80
2023/10/14 02:20:56;;;;;;;17.50;8.60;;;;;;;-141.97;59.73;47532.53;5042189;28;20178;-80
2023/10/14 02:23:43;;;;;;;15.20;8.97;;;;;;;-141.97;59.76;47544.06;5033290;28;20172;-82
2023/10/14 02:26:16;;;;;;;18.53;9.30;;;;;;;-141.97;60.18;47494.09;5043527;28;20173;-80
2023/10/14 02:28:45;;;;;;;17.17;9.60;;;;;;;-141.97;60.41;47521.00;5030539;28;20543;-80
2023/10/14 02:31:17;;;;;;;20.80;9.47;;;;;;;-141.97;60.69;47490.25;5031148;28;20236;-80
2023/10/14 02:33:46;;;;;;;17.77;9.47;;;;;;;-141.97;60.64;47511.38;5031652;28;20169;-80
2023/10/14 02:36:14;;;;;;;17.77;9.63;;;;;;;-141.97;60.56;47521.00;5031238;28;20204;-80
2023/10/14 02:38:40;;;;;;;21.17;9.20;;;;;;;-141.97;60.08;47513.31;5032141;28;20204;-81
2023/10/14 02:41:07;;;;;;;17.20;9.67;;;;;;;-141.97;60.02;47526.75;5030624;28;20182;-80
2023/10/14 02:43:36;;;;;;;16.20;9.17;;;;;;;-141.97;59.29;47507.53;5032707;28;20162;-81
2023/10/14 02:46:04;;;;;;;18.20;9.17;;;;;;;-141.97;58.87;47496.00;5025408;28;20965;-80
2023/10/14 02:48:52;;;;;;;21.93;9.33;;;;;;;-141.97;58.89;47546.00;5017345;28;20515;-81
2023/10/14 02:51:16;;;;;;;19.77;10.23;;;;;;;-141.97;58.33;47622.88;5033412;28;20634;-85
2023/10/14 02:53:43;;;;;;;21.03;10.63;;;;;;;-141.97;58.53;47553.69;5046287;28;20192;-85
2023/10/14 02:56:20;;;;;;;19.03;10.57;;;;;;;-141.97;58.16;47553.69;5050537;28;20157;-85
2023/10/14 02:58:46;;;;;;;21.50;10.90;;;;;;;-141.97;58.57;47551.75;5041066;28;20627;-85
2023/10/14 03:01:12;;;;;;;22.33;10.30;;;;;;;-141.97;58.29;47542.16;5034470;28;20249;-84
2023/10/14 03:03:42;;;;;;;21.27;9.90;;;;;;;-141.97;58.82;47461.41;5034651;28;20550;-85
2023/10/14 03:06:08;;;;;;;22.27;10.97;;;;;;;-141.97;59.47;47680.53;5034233;28;20173;-85
2023/10/14 03:08:34;;;;;;;17.83;9.77;;;;;;;-141.97;60.32;47588.28;5033441;28;20308;-85
2023/10/14 03:11:11;;;;;;;18.20;10.07;;;;;;;-141.97;60.96;47522.91;5034519;28;20158;-85
2023/10/14 03:13:41;;;;;;;18.07;9.10;;;;;;;-141.97;61.40;47480.63;5034559;28;20173;-85
2023/10/14 03:16:07;;;;;;;17.00;9.30;;;;;;;-141.97;61.94;47451.81;5016650;28;20162;-85
2023/10/14 03:18:38;;;;;;;16.63;9.57;;;;;;;-141.97;61.68;47547.91;5033916;28;20194;-85
2023/10/14 03:21:09;;;;;;;18.77;9.40;;;;;;;-141.97;62.16;47519.06;5034300;28;20812;-85
2023/10/14 03:23:35;;;;;;;20.00;8.90;;;;;;;-141.97;62.53;47422.97;5034077;28;20162;-85
2023/10/14 03:26:13;;;;;;;16.30;8.80;;;;;;;-141.97;62.28;47692.06;5034367;28;20200;-85
2023/10/14 03:28:40;;;;;;;19.67;8.70;;;;;;;-141.97;62.33;47517.16;5040949;28;20178;-86
2023/10/14 03:31:09;;;;;;;19.17;8.67;;;;;;;-141.97;62.58;47551.75;5053673;28;20964;-85
2023/10/14 03:33:43;;;;;;;13.77;8.30;;;;;;;-141.97;62.81;47519.06;5053710;28;20165;-85
2023/10/14 03:36:15;;;;;;;16.47;8.50;;;;;;;-141.97;62.97;47538.28;5049469;28;20253;-85
2023/10/14 03:38:42;;;;;;;21.33;8.90;;;;;;;-141.97;62.82;47540.22;5015506;28;20698;-85
2023/10/14 03:41:18;;;;;;;17.27;8.63;;;;;;;-141.97;62.47;47494.09;5025812;28;20237;-84
2023/10/14 03:48:57;;;;;;;14.70;8.33;;;;;;;-141.97;61.80;47567.13;5033993;28;20158;-85
2023/10/14 03:51:24;;;;;;;16.30;8.67;;;;;;;-141.97;61.83;47624.78;5033289;28;20327;-85
2023/10/14 03:53:57;;;;;;;17.00;8.60;;;;;;;-141.97;61.68;47547.91;5032807;28;20542;-85
2023/10/14 03:56:27;;;;;;;14.93;8.70;;;;;;;-141.97;61.96;47563.28;5033599;28;20228;-85
2023/10/14 03:58:57;;;;;;;18.57;9.20;;;;;;;-141.97;61.63;47521.00;5015591;28;20190;-86
2023/10/14 04:04:14;;;;;;;20.23;8.67;;;;;;;-141.97;62.65;47457.56;5033863;28;20273;-85
2023/10/14 04:06:41;;;;;;;15.30;8.87;;;;;;;-141.97;62.13;47497.94;5033686;28;20217;-85
2023/10/14 04:09:10;;;;;;;16.93;9.00;;;;;;;-141.97;62.04;47446.03;5015109;28;20200;-84
2023/10/14 04:11:38;;;;;;;14.37;8.77;;;;;;;-141.97;62.58;47492.16;5033484;28;20602;-86
2023/10/14 04:14:13;;;;;;;18.53;8.80;;;;;;;-141.97;62.43;47482.56;5033333;28;20273;-85
2023/10/14 04:19:44;;;;;;;18.27;8.73;;;;;;;-141.97;62.16;47663.22;5033411;28;20320;-84
2023/10/14 04:25:18;;;;;;;20.40;9.57;;;;;;;-141.97;62.36;47569.06;5032903;28;20178;-87
2023/10/14 04:30:21;;;;;;;18.83;9.57;;;;;;;-141.97;61.59;47619.03;5033976;28;20216;-79
2023/10/14 04:32:48;;;;;;;17.93;9.37;;;;;;;-141.97;61.66;47522.91;5033498;28;20536;-85
2023/10/14 04:35:19;;;;;;;19.07;9.23;;;;;;;-141.97;61.33;47561.38;5015520;28;20188;-85
2023/10/14 04:37:51;;;;;;;17.53;9.47;;;;;;;-141.97;61.77;47519.06;5014520;28;20616;-85
2023/10/14 04:45:45;;;;;;;19.57;9.23;;;;;;;-141.97;62.14;47576.75;5032326;28;20173;-86
2023/10/14 04:48:16;;;;;;;17.07;9.80;;;;;;;-141.97;62.38;47490.25;5031226;28;20292;-85
2023/10/14 04:50:42;;;;;;;16.27;9.70;;;;;;;-141.97;62.12;47559.44;5022548;28;20178;-85
2023/10/14 04:53:17;;;;;;;18.13;9.27;;;;;;;-141.97;62.29;47632.47;5030274;28;20233;-85
2023/10/14 04:55:43;;;;;;;16.53;8.63;;;;;;;-141.97;62.15;47446.03;5034464;28;20169;-86
2023/10/14 04:58:12;;;;;;;15.43;9.10;;;;;;;-141.97;62.08;47503.69;5022622;28;20220;-87
2023/10/14 05:00:42;;;;;;;14.67;9.20;;;;;;;-141.97;62.12;47544.06;5017893;28;20173;-84
2023/10/14 05:03:18;;;;;;;16.63;9.27;;;;;;;-141.97;61.94;47563.28;5032489;28;20178;-84
2023/10/14 05:05:46;;;;;;;14.97;8.90;;;;;;;-141.97;61.83;47499.84;5031853;28;20259;-86
2023/10/14 05:08:15;;;;;;;14.57;9.00;;;;;;;-141.97;61.65;47553.69;5031586;28;20256;-85
2023/10/14 05:10:44;;;;;;;18.30;8.77;;;;;;;-141.97;61.78;47534.44;5052375;28;20215;-85
2023/10/14 05:13:12;;;;;;;19.50;9.50;;;;;;;-141.97;61.76;47530.59;5052047;28;20601;-86
2023/10/14 05:15:42;;;;;;;17.77;9.40;;;;;;;-141.97;61.38;47534.44;5044164;28;20681;-85
2023/10/14 05:18:15;;;;;;;23.60;9.63;;;;;;;-141.97;61.37;47647.84;5032072;28;20170;-85
2023/10/14 05:23:19;;;;;;;19.13;9.90;;;;;;;-141.97;62.33;47546.00;5031923;28;20161;-85
2023/10/14 05:25:48;;;;;;;19.50;10.23;;;;;;;-141.97;62.52;47538.28;5031589;28;20181;-86
2023/10/14 05:28:16;;;;;;;22.07;9.53;;;;;;;-141.97;62.32;47494.09;5014308;28;20174;-85
2023/10/14 05:30:46;;;;;;;21.77;9.53;;;;;;;-141.97;62.70;47515.22;5031824;28;20197;-85
2023/10/14 05:33:14;;;;;;;19.37;9.93;;;;;;;-141.97;62.38;47392.22;5014283;28;20166;-86
2023/10/14 05:35:43;;;;;;;19.67;9.80;;;;;;;-141.97;62.12;47570.97;5031788;28;20178;-84
2023/10/14 05:38:13;;;;;;;19.30;8.60;;;;;;;-141.97;62.23;47446.03;5031177;28;20641;-85
2023/10/14 05:40:40;;;;;;;17.70;8.43;;;;;;;-141.97;62.08;47617.09;5013649;28;20243;-86
2023/10/14 05:43:06;;;;;;;16.47;8.13;;;;;;;-141.97;61.86;47505.63;5030439;28;20166;-85
2023/10/14 05:45:34;;;;;;;22.13;8.17;;;;;;;-141.97;61.02;47522.91;5031352;28;20154;-84
2023/10/14 05:48:03;;;;;;;21.53;8.97;;;;;;;-141.97;60.59;47544.06;5013126;28;20180;-85
2023/10/14 05:50:32;;;;;;;26.90;10.20;;;;;;;-141.97;59.88;47670.91;5031301;28;20641;-85
2023/10/14 05:52:59;;;;;;;25.17;11.10;;;;;;;-141.97;59.15;47499.84;5021111;28;20185;-84
2023/10/14 05:55:25;;;;;;;25.83;10.47;;;;;;;-141.97;58.60;47651.69;5031821;28;20169;-84
2023/10/14 05:57:51;;;;;;;44.53;24.60;;;;;;;-141.97;59.11;47659.38;5031500;28;20545;-86
2023/10/14 06:00:23;;;;;;;78.17;43.40;;;;;;;-141.97;59.13;47534.44;5030865;28;20215;-86
2023/10/14 06:02:58;;;;;;;48.97;27.63;;;;;;;-141.97;59.05;47484.47;5031497;28;20165;-85
2023/10/14 06:05:31;;;;;;;47.80;24.80;;;;;;;-141.97;58.67;47530.59;5013673;28;20583;-85
2023/10/14 06:08:00;;;;;;;83.33;42.40;;;;;;;-141.97;58.88;47524.84;5030484;28;20218;-86
2023/10/14 06:10:29;;;;;;;32.97;17.80;;;;;;;-141.97;57.91;47584.44;5030710;28;20264;-85
2023/10/14 06:12:56;;;;;;;70.90;40.43;;;;;;;-141.97;57.32;47494.09;5031985;28;20158;-87
2023/10/14 06:15:22;;;;;;;35.60;21.47;;;;;;;-141.97;56.77;47538.28;5051374;28;20556;-83
2023/10/14 06:17:49;;;;;;;22.30;11.27;;;;;;;-141.97;56.53;47584.44;5064830;28;20161;-78
2023/10/14 06:20:16;;;;;;;15.43;8.63;;;;;;;-141.97;56.81;47551.75;5032499;28;20190;-82
2023/10/14 06:22:43;;;;;;;20.00;8.47;;;;;;;-141.97;56.33;47553.69;5032079;28;20166;-83
2023/10/14 06:25:15;;;;;;;18.97;8.33;;;;;;;-141.97;55.35;47524.84;5031910;28;20158;-83
2023/10/14 06:27:45;;;;;;;14.73;8.23;;;;;;;-141.97;54.21;47472.94;5031928;28;20182;-83
2023/10/14 06:30:18;;;;;;;13.83;8.03;;;;;;;-141.97;53.33;47584.44;5030588;28;20166;-85
2023/10/14 06:32:47;;;;;;;15.13;7.90;;;;;;;-141.97;53.76;47546.00;5035058;28;20169;-82
2023/10/14 06:35:14;;;;;;;20.23;8.47;;;;;;;-141.97;52.81;47626.72;5017397;28;20190;-82
2023/10/14 06:37:42;;;;;;;14.50;7.70;;;;;;;-141.97;52.98;47546.00;5017725;28;20197;-83
2023/10/14 06:40:12;;;;;;;14.50;8.17;;;;;;;-141.97;52.58;47680.53;5035078;28;20665;-83
2023/10/14 06:42:43;;;;;;;30.90;19.60;;;;;;;-141.97;52.07;47534.44;5017256;28;20223;-82
2023/10/14 06:45:11;;;;;;;22.03;14.23;;;;;;;-141.97;51.69;47503.69;5018651;28;20544;-84
2023/10/14 06:47:36;;;;;;;22.20;12.57;;;;;;;-141.97;50.52;47521.00;5034875;28;20649;-84
2023/10/14 06:50:02;;;;;;;22.13;11.80;;;;;;;-141.97;49.91;47482.56;5034439;28;20166;-83
2023/10/14 06:52:27;;;;;;;18.57;9.70;;;;;;;-141.97;49.48;47457.56;5034555;28;20162;-82
2023/10/14 06:54:53;;;;;;;20.87;10.90;;;;;;;-141.97;48.41;47511.38;5007746;28;20316;-83
2023/10/14 06:57:18;;;;;;;28.90;15.47;;;;;;;-141.97;47.83;47471.03;5035748;28;20267;-83
2023/10/14 06:59:45;;;;;;;22.97;12.50;;;;;;;-141.97;47.74;47534.44;5036954;28;20198;-85
2023/10/14 07:02:10;;;;;;;21.57;11.40;;;;;;;-141.97;46.96;47526.75;5019014;28;20162;-82
2023/10/14 07:04:40;;;;;;;28.13;16.27;;;;;;;-141.97;45.58;47484.47;5034516;28;20249;-82
2023/10/14 07:07:09;;;;;;;18.73;10.90;;;;;;;-141.97;45.37;47603.66;5017378;28;20221;-82
2023/10/14 07:09:37;;;;;;;35.93;17.90;;;;;;;-141.97;45.29;47472.94;5034523;28;20232;-82
2023/10/14 07:12:13;;;;;;;34.77;18.63;;;;;;;-141.97;44.91;47457.56;5016827;28;20174;-82
2023/10/14 07:14:39;;;;;;;25.13;10.50;;;;;;;-141.97;44.57;47682.47;5016278;28;20236;-83
2023/10/14 07:17:07;;;;;;;17.40;8.70;;;;;;;-141.97;43.75;47415.28;5016259;28;20757;-83
2023/10/14 07:19:32;;;;;;;15.60;7.97;;;;;;;-141.97;43.80;47507.53;5034660;28;20603;-84
2023/10/14 07:21:57;;;;;;;16.97;7.43;;;;;;;-141.97;43.35;47632.47;5020946;28;20181;-83
2023/10/14 07:24:23;;;;;;;14.30;7.73;;;;;;;-141.97;43.19;47401.84;5046089;28;20170;-83
2023/10/14 07:26:48;;;;;;;13.60;7.37;;;;;;;-141.97;42.57;47490.25;5037475;28;20166;-83
2023/10/14 07:29:14;;;;;;;16.23;7.97;;;;;;;-141.97;41.76;47461.41;5036761;28;20172;-83
2023/10/14 07:31:41;;;;;;;16.67;7.83;;;;;;;-141.97;41.66;47603.66;5035731;28;20308;-83
2023/10/14 07:34:10;;;;;;;15.53;7.90;;;;;;;-141.97;41.62;47407.59;5036392;28;20215;-83
2023/10/14 07:36:35;;;;;;;12.90;7.40;;;;;;;-141.97;40.92;47569.06;5018432;28;20284;-83
2023/10/14 07:39:27;;;;;;;13.87;7.90;;;;;;;-141.97;40.80;47338.41;5035766;28;20281;-84
2023/10/14 07:41:52;;;;;;;13.70;7.67;;;;;;;-141.97;40.41;47384.53;5040802;28;20166;-83
2023/10/14 07:44:19;;;;;;;15.77;7.90;;;;;;;-141.97;40.50;47449.88;5041599;28;20174;-84
2023/10/14 07:46:44;;;;;;;14.30;7.67;;;;;;;-141.97;40.03;47465.25;5047742;28;20216;-82
2023/10/14 07:49:10;;;;;;;19.20;8.17;;;;;;;-141.97;39.83;47407.59;5045080;28;20158;-84
2023/10/14 07:51:35;;;;;;;14.93;8.23;;;;;;;-141.97;38.97;47620.94;5034274;28;20242;-84
2023/10/14 07:54:01;;;;;;;12.93;7.50;;;;;;;-141.97;38.31;47469.09;5022854;28;20234;-85
2023/10/14 07:56:26;;;;;;;12.13;7.37;;;;;;;-141.97;38.38;47411.44;5033040;28;20245;-85
2023/10/14 07:58:53;;;;;;;13.47;7.10;;;;;;;-141.97;38.93;47496.00;5032253;28;20194;-85
2023/10/14 08:01:22;;;;;;;15.33;6.90;;;;;;;-141.97;38.63;47653.63;5032861;28;20688;-86
2023/10/14 08:03:48;;;;;;;12.60;6.93;;;;;;;-141.97;39.00;47474.88;5015054;28;20166;-85
2023/10/14 08:06:17;;;;;;;14.37;8.20;;;;;;;-141.97;37.91;47586.34;5032946;28;20678;-85
2023/10/14 08:08:47;;;;;;;14.37;6.97;;;;;;;-141.97;36.98;47392.22;5033370;28;20162;-85
2023/10/14 08:11:14;;;;;;;16.13;8.00;;;;;;;-141.97;36.90;47620.94;5015643;28;20162;-85
2023/10/14 08:13:43;;;;;;;13.40;8.00;;;;;;;-141.97;36.99;47472.94;5015462;28;20187;-85
2023/10/14 08:16:11;;;;;;;18.03;7.53;;;;;;;-141.97;36.82;47399.91;5033063;28;20159;-86
2023/10/14 08:18:37;;;;;;;12.67;7.27;;;;;;;-141.97;36.48;47501.78;5032841;28;20240;-81
2023/10/14 08:21:03;;;;;;;15.07;7.57;;;;;;;-141.97;35.98;47334.56;5014842;28;20600;-84
2023/10/14 08:23:29;;;;;;;18.17;7.70;;;;;;;-141.97;35.89;47472.94;5014815;28;20668;-85
2023/10/14 08:25:55;;;;;;;11.63;7.20;;;;;;;-141.97;36.01;47459.50;5033223;28;20173;-85
2023/10/14 08:28:21;;;;;;;12.43;7.43;;;;;;;-141.97;36.01;47601.72;5015195;28;20236;-83
2023/10/14 08:30:49;;;;;;;18.10;7.30;;;;;;;-141.97;35.69;47380.69;5015646;28;20170;-85
2023/10/14 08:33:19;;;;;;;15.57;7.20;;;;;;;-141.97;35.43;47419.13;5018610;28;20166;-85
2023/10/14 08:35:45;;;;;;;11.57;6.70;;;;;;;-141.97;34.50;47570.97;5033137;28;20174;-88
2023/10/14 08:38:17;;;;;;;10.37;6.70;;;;;;;-141.97;34.19;47403.75;5015044;28;20408;-88
2023/10/14 08:40:43;;;;;;;12.27;7.60;;;;;;;-141.97;34.06;47507.53;5015316;28;20170;-83
2023/10/14 08:43:10;;;;;;;15.43;7.73;;;;;;;-141.97;33.64;47407.59;5032697;28;20201;-89
2023/10/14 08:45:39;;;;;;;10.23;7.17;;;;;;;-141.97;33.56;47603.66;5015657;28;20169;-90
2023/10/14 08:48:08;;;;;;;14.67;7.63;;;;;;;-141.97;33.58;47451.81;5032964;28;20249;-88
2023/10/14 08:50:34;;;;;;;13.50;6.90;;;;;;;-141.97;33.11;47363.41;5014946;28;20173;-89
2023/10/14 08:53:04;;;;;;;11.53;6.80;;;;;;;-141.97;32.88;47342.25;5022098;28;20244;-88
2023/10/14 08:55:35;;;;;;;13.67;6.70;;;;;;;-141.97;32.97;47426.81;5015349;28;20163;-89
2023/10/14 08:58:02;;;;;;;11.93;6.60;;;;;;;-141.97;32.93;47434.50;5032106;28;20205;-89
2023/10/14 09:00:29;;;;;;;17.27;6.60;;;;;;;-141.97;32.68;47403.75;5014900;28;21096;-87
2023/10/14 09:02:55;;;;;;;13.53;6.97;;;;;;;-141.97;32.83;47338.41;5032560;28;20272;-87
2023/10/14 09:05:22;;;;;;;13.03;7.10;;;;;;;-141.97;33.03;47421.06;5031413;28;20174;-88
2023/10/14 09:07:49;;;;;;;14.25;7.53;;;;;;;-141.97;32.79;47307.66;5014484;28;20214;-86
2023/10/14 09:10:18;;;;;;;12.25;6.72;;;;;;;-141.97;32.57;47361.47;5015884;28;20163;-85
2023/10/14 09:13:03;;;;;;;14.07;7.63;;;;;;;-141.97;32.64;47542.16;5016105;28;20169;-87
2023/10/14 09:15:32;;;;;;;10.82;7.22;;;;;;;-141.97;32.86;47374.94;5032738;28;20154;-86
2023/10/14 09:17:58;;;;;;;11.48;6.40;;;;;;;-141.97;32.34;47592.13;5031912;28;20637;-86
2023/10/14 09:20:31;;;;;;;13.63;6.93;;;;;;;-141.97;32.24;47380.69;5014487;28;20218;-86
2023/10/14 09:23:22;;;;;;;16.23;7.15;;;;;;;-141.97;32.07;47422.97;5032617;28;20183;-87
2023/10/14 09:25:52;;;;;;;13.00;6.90;;;;;;;-141.97;31.96;47426.81;5014772;28;20176;-87
2023/10/14 09:28:20;;;;;;;15.18;7.40;;;;;;;-141.97;32.39;47411.44;5015353;28;20216;-88
2023/10/14 09:30:49;;;;;;;15.57;7.45;;;;;;;-141.97;32.95;47415.28;5013667;28;20179;-85
2023/10/14 09:33:19;;;;;;;18.92;7.25;;;;;;;-141.97;32.30;47390.31;5015326;28;20270;-87
2023/10/14 09:35:50;;;;;;;11.57;7.35;;;;;;;-141.97;31.86;47513.31;5014918;28;20172;-86
2023/10/14 09:38:22;;;;;;;14.13;7.00;;;;;;;-141.97;31.26;47340.34;5013727;28;20646;-85
2023/10/14 09:41:04;;;;;;;11.10;7.20;;;;;;;-141.97;31.04;47415.28;5016292;28;20179;-86
2023/10/14 09:43:32;;;;;;;15.40;7.10;;;;;;;-141.97;31.73;47290.38;5052781;28;20161;-86
2023/10/14 09:46:08;;;;;;;15.60;7.40;;;;;;;-141.97;32.02;47388.38;5034147;28;20172;-86
2023/10/14 09:48:35;;;;;;;10.65;7.43;;;;;;;-141.97;32.83;47319.19;5015934;28;20183;-85
2023/10/14 09:51:02;;;;;;;17.15;7.38;;;;;;;-141.97;32.57;47396.06;5020170;28;20175;-84
2023/10/14 09:53:34;;;;;;;14.45;6.80;;;;;;;-141.97;32.38;47273.06;5020288;28;20165;-86
2023/10/14 09:56:04;;;;;;;10.52;7.18;;;;;;;-141.97;31.67;47303.81;5038458;28;20197;-85
2023/10/14 09:58:35;;;;;;;13.77;7.40;;;;;;;-141.97;31.96;47438.34;5023855;28;20212;-85
2023/10/14 10:01:04;;;;;;;11.00;7.07;;;;;;;-141.97;31.76;47376.84;5038853;28;20165;-83
2023/10/14 10:03:34;;;;;;;10.43;7.18;;;;;;;-141.97;31.53;47275.00;5031753;28;20170;-83
2023/10/14 10:06:11;;;;;;;12.15;7.10;;;;;;;-141.97;31.59;47411.44;5031275;28;20172;-83
2023/10/14 10:09:04;;;;;;;11.07;6.90;;;;;;;-141.97;31.67;47392.22;5013189;28;20612;-84
2023/10/14 10:11:33;;;;;;;9.90;6.70;;;;;;;-141.97;31.46;47403.75;5013562;28;20914;-84
2023/10/14 10:14:02;;;;;;;13.30;6.70;;;;;;;-141.97;31.27;47392.22;5031451;28;20157;-83
2023/10/14 10:16:32;;;;;;;14.15;7.32;;;;;;;-141.97;30.83;47430.66;5013565;28;20558;-84
2023/10/14 10:18:59;;;;;;;14.57;7.35;;;;;;;-141.97;30.71;47323.03;5031396;28;20269;-84
2023/10/14 10:21:29;;;;;;;12.13;6.57;;;;;;;-141.97;30.69;47338.41;5014002;28;20595;-85
2023/10/14 10:24:02;;;;;;;12.65;6.82;;;;;;;-141.97;30.34;47380.69;5032135;28;20161;-84
2023/10/14 10:26:49;;;;;;;13.10;6.88;;;;;;;-141.97;30.35;47415.28;5031399;28;20218;-84
2023/10/14 10:29:24;;;;;;;11.80;6.85;;;;;;;-141.97;30.13;47313.44;5013777;28;20168;-84
2023/10/14 10:32:06;;;;;;;12.02;6.82;;;;;;;-141.97;30.50;47411.44;5031319;28;20174;-85
2023/10/14 10:34:33;;;;;;;11.73;6.63;;;;;;;-141.97;31.04;47380.69;5013319;28;20271;-85
2023/10/14 10:36:59;;;;;;;13.20;7.40;;;;;;;-141.97;30.97;47344.19;5030240;28;20187;-85
2023/10/14 10:39:26;;;;;;;10.27;6.70;;;;;;;-141.97;31.29;47373.00;5012353;28;20261;-84
2023/10/14 10:41:53;;;;;;;8.98;7.45;;;;;;;-141.97;31.12;47373.00;5012449;28;20170;-86
2023/10/14 10:44:19;;;;;;;12.20;7.55;;;;;;;-141.97;31.06;47490.25;5030482;28;20169;-83
2023/10/14 10:46:50;;;;;;;12.02;7.55;;;;;;;-141.97;31.04;47259.63;5029643;28;20168;-84
2023/10/14 10:49:51;;;;;;;13.00;7.28;;;;;;;-141.97;31.38;47380.69;5012078;28;20653;-84
2023/10/14 10:52:16;;;;;;;11.68;7.20;;;;;;;-141.97;30.95;47259.63;5030522;28;20204;-84
2023/10/14 10:54:43;;;;;;;10.38;7.18;;;;;;;-141.97;30.91;47348.03;5020594;28;20263;-82
2023/10/14 10:57:08;;;;;;;14.55;7.38;;;;;;;-141.97;30.97;47588.28;5012384;28;20214;-84
2023/10/14 10:59:38;;;;;;;11.65;7.55;;;;;;;-141.97;31.44;47250.00;5030415;28;20231;-85
2023/10/14 11:02:18;;;;;;;12.95;7.13;;;;;;;-141.97;31.66;47413.38;5030337;28;20158;-85
2023/10/14 11:04:45;;;;;;;12.93;8.77;;;;;;;-141.97;31.35;47288.44;5029925;28;20574;-84
2023/10/14 11:07:11;;;;;;;11.85;7.38;;;;;;;-141.97;31.24;47290.38;5011777;28;20232;-84
2023/10/14 11:09:40;;;;;;;15.90;9.32;;;;;;;-141.97;31.43;47332.66;5029712;28;20163;-85
2023/10/14 11:12:08;;;;;;;12.82;7.03;;;;;;;-141.97;31.30;47371.09;5030568;28;20165;-85
2023/10/14 11:14:34;;;;;;;11.88;7.25;;;;;;;-141.97;31.18;47376.84;5030581;28;20164;-85
2023/10/14 11:16:59;;;;;;;12.85;9.10;;;;;;;-141.97;31.53;47348.03;5030280;28;20224;-84
2023/10/14 11:19:26;;;;;;;10.15;6.97;;;;;;;-141.97;31.17;47373.00;5035130;28;20549;-84
2023/10/14 11:21:53;;;;;;;13.77;7.32;;;;;;;-141.97;31.28;47492.16;5035031;28;20612;-84
2023/10/14 11:24:19;;;;;;;13.88;8.73;;;;;;;-141.97;30.96;47334.56;5034690;28;20601;-84
2023/10/14 11:26:45;;;;;;;11.57;7.00;;;;;;;-141.97;30.70;47324.97;5034810;28;20247;-84
2023/10/14 11:29:13;;;;;;;14.07;7.13;;;;;;;-141.97;31.00;47365.31;5034617;28;20180;-85
2023/10/14 11:31:42;;;;;;;10.93;7.40;;;;;;;-141.97;31.25;47667.06;5016640;28;20569;-86
2023/10/14 11:34:11;;;;;;;12.93;7.15;;;;;;;-141.97;31.08;47267.31;5016808;28;20237;-85
2023/10/14 11:36:41;;;;;;;12.02;7.10;;;;;;;-141.97;31.71;47299.97;5016475;28;20569;-85
2023/10/14 11:39:12;;;;;;;12.13;7.47;;;;;;;-141.97;31.70;47365.31;5015797;28;20262;-85
2023/10/14 11:41:38;;;;;;;14.43;7.43;;;;;;;-141.97;31.47;47384.53;5043130;28;20211;-85
2023/10/14 11:44:04;;;;;;;14.20;7.43;;;;;;;-141.97;31.19;47346.09;5054292;28;20173;-84
2023/10/14 11:46:29;;;;;;;15.00;6.85;;;;;;;-141.97;31.67;47317.28;5035966;28;20234;-84
2023/10/14 11:48:55;;;;;;;11.10;6.88;;;;;;;-141.97;31.33;47357.63;5038156;28;20163;-84
2023/10/14 11:51:21;;;;;;;10.10;7.20;;;;;;;-141.97;30.98;47253.84;5033686;28;20223;-84
2023/10/14 11:53:50;;;;;;;10.60;7.07;;;;;;;-141.97;31.00;47346.09;5032261;28;20170;-83
2023/10/14 11:56:16;;;;;;;13.68;6.93;;;;;;;-141.97;30.61;47259.63;5028853;28;20723;-85
2023/10/14 11:58:42;;;;;;;11.93;6.72;;;;;;;-141.97;30.69;47353.78;5034860;28;20192;-84